Time;durP1;ratioP1;P1;durP2;ratioP2;P2;SDS_P1;SDS_P2;PMS_P1;PMS_P2;Temp;Humidity;BMP_temperature;BMP_pressure;BME280_temperature;BME280_humidity;BME280_pressure;Samples;Min_cycle;Max_cycle;Signal;HPM_P1;HPM_P2
2021/11/26 00:02:27;;;;;;;7.50;3.22;;;3.30;99.90;;;;;;5082168;28;20437;-66
2021/11/26 00:04:54;;;;;;;9.03;3.03;;;3.30;99.90;;;;;;5144473;27;20044;-66
2021/11/26 00:07:21;;;;;;;12.10;3.63;;;3.30;99.90;;;;;;5121198;27;20035;-66
2021/11/26 00:09:47;;;;;;;9.55;3.35;;;3.30;99.90;;;;;;5115764;27;20040;-66
2021/11/26 00:12:14;;;;;;;14.25;3.35;;;3.40;99.90;;;;;;5147371;27;20548;-66
2021/11/26 00:15:26;;;;;;;9.90;3.33;;;3.30;99.90;;;;;;5126132;27;20080;-66
2021/11/26 00:17:33;;;;;;;10.50;2.85;;;3.40;99.90;;;;;;5111356;28;20063;-65
2021/11/26 00:19:58;;;;;;;10.93;3.17;;;3.40;99.90;;;;;;5146841;27;20424;-66
2021/11/26 00:22:24;;;;;;;11.40;3.50;;;3.40;99.90;;;;;;5115924;27;20046;-66
2021/11/26 00:24:52;;;;;;;9.70;3.45;;;3.40;99.90;;;;;;5140726;27;20065;-66
2021/11/26 00:27:19;;;;;;;11.48;3.83;;;3.40;99.90;;;;;;5147538;27;20533;-66
2021/11/26 00:29:44;;;;;;;10.20;2.92;;;3.50;99.90;;;;;;5128566;27;20362;-66
2021/11/26 00:32:10;;;;;;;16.98;3.17;;;3.50;99.90;;;;;;5113727;28;20466;-66
2021/11/26 00:34:36;;;;;;;11.27;2.83;;;3.60;99.90;;;;;;5134174;27;20465;-66
2021/11/26 00:37:02;;;;;;;10.65;2.97;;;3.70;99.90;;;;;;5117269;27;20085;-66
2021/11/26 00:39:28;;;;;;;8.43;2.95;;;3.70;99.90;;;;;;5136798;27;20096;-66
2021/11/26 00:41:53;;;;;;;10.90;2.50;;;3.70;99.90;;;;;;5125154;27;20071;-66
2021/11/26 00:44:19;;;;;;;9.82;2.60;;;3.70;99.90;;;;;;5118423;27;20043;-66
2021/11/26 00:46:45;;;;;;;7.13;2.67;;;3.80;99.90;;;;;;5118225;28;20518;-66
2021/11/26 00:49:11;;;;;;;9.63;2.55;;;3.80;99.90;;;;;;5128425;27;20065;-66
2021/11/26 00:51:37;;;;;;;13.77;3.20;;;3.90;99.90;;;;;;5109905;27;20039;-66
2021/11/26 00:54:03;;;;;;;9.52;2.63;;;3.90;99.90;;;;;;5146083;27;20099;-66
2021/11/26 00:56:29;;;;;;;10.75;2.95;;;3.90;99.90;;;;;;5123080;28;20051;-66
2021/11/26 00:58:55;;;;;;;10.27;2.63;;;3.90;99.90;;;;;;5117325;27;20058;-66
2021/11/26 01:01:20;;;;;;;9.40;2.80;;;3.80;99.90;;;;;;5120009;27;20098;-66
2021/11/26 01:03:46;;;;;;;7.38;2.45;;;3.80;99.90;;;;;;5147124;27;20042;-66
2021/11/26 01:06:12;;;;;;;10.45;2.85;;;3.80;99.90;;;;;;5146591;27;20035;-66
2021/11/26 01:08:39;;;;;;;10.25;2.60;;;3.80;99.90;;;;;;5145305;27;20058;-66
2021/11/26 01:11:05;;;;;;;7.85;2.22;;;3.80;99.90;;;;;;5136563;27;20050;-66
2021/11/26 01:13:32;;;;;;;7.97;2.38;;;3.70;99.90;;;;;;5131490;27;20058;-66
2021/11/26 01:15:58;;;;;;;8.05;2.45;;;3.70;99.90;;;;;;5147486;27;20047;-66
2021/11/26 01:18:24;;;;;;;8.57;2.33;;;3.70;99.90;;;;;;5146103;27;20095;-66
2021/11/26 01:20:50;;;;;;;5.63;2.05;;;3.70;99.90;;;;;;5127844;27;20046;-66
2021/11/26 01:23:16;;;;;;;5.97;2.00;;;3.70;99.90;;;;;;5124815;27;20044;-66
2021/11/26 01:25:42;;;;;;;6.30;2.00;;;3.60;99.90;;;;;;5122688;27;20046;-66
2021/11/26 01:28:09;;;;;;;7.85;2.05;;;3.70;99.90;;;;;;5127208;27;20110;-66
2021/11/26 01:30:44;;;;;;;10.00;2.55;;;3.70;99.90;;;;;;5117064;28;20061;-66
2021/11/26 01:33:12;;;;;;;9.43;2.35;;;3.80;99.90;;;;;;5127017;27;20037;-66
2021/11/26 01:35:39;;;;;;;7.63;2.55;;;3.90;99.90;;;;;;5126916;27;20392;-66
2021/11/26 01:38:05;;;;;;;8.88;2.53;;;4.00;99.90;;;;;;5106633;27;20503;-67
2021/11/26 01:40:36;;;;;;;7.65;2.80;;;4.10;99.90;;;;;;5118662;28;20103;-66
2021/11/26 01:43:03;;;;;;;8.90;2.58;;;4.10;99.90;;;;;;5138615;27;20038;-66
2021/11/26 01:45:29;;;;;;;8.88;2.38;;;4.20;99.90;;;;;;5110528;27;20087;-66
2021/11/26 01:47:55;;;;;;;7.70;2.10;;;4.10;99.90;;;;;;5120711;27;20054;-66
2021/11/26 01:50:24;;;;;;;8.25;2.63;;;4.00;99.90;;;;;;5111618;28;20085;-66
2021/11/26 01:52:51;;;;;;;10.00;2.33;;;3.90;99.90;;;;;;5122524;28;20168;-66
2021/11/26 01:55:18;;;;;;;6.50;2.13;;;3.90;99.90;;;;;;5125198;27;20035;-66
2021/11/26 01:57:45;;;;;;;6.85;2.50;;;3.80;99.90;;;;;;5114072;28;20043;-66
2021/11/26 02:00:15;;;;;;;11.00;2.70;;;3.80;99.90;;;;;;5111038;28;20122;-65
2021/11/26 02:02:40;;;;;;;5.70;2.15;;;3.70;99.90;;;;;;5117494;28;20043;-66
2021/11/26 02:05:07;;;;;;;11.15;2.40;;;3.70;99.90;;;;;;5105075;27;20053;-66
2021/11/26 02:07:32;;;;;;;7.60;2.50;;;3.70;99.90;;;;;;5116770;27;20089;-66
2021/11/26 02:09:58;;;;;;;8.80;2.47;;;3.60;99.90;;;;;;5145070;27;20051;-66
2021/11/26 02:12:24;;;;;;;7.47;3.00;;;3.70;99.90;;;;;;5120307;28;20039;-66
2021/11/26 02:14:50;;;;;;;7.72;2.80;;;3.70;99.90;;;;;;5100175;28;20047;-66
2021/11/26 02:17:16;;;;;;;9.63;3.10;;;3.70;99.90;;;;;;5120542;28;20040;-66
2021/11/26 02:19:41;;;;;;;9.73;3.20;;;3.60;99.90;;;;;;5117435;28;20486;-66
2021/11/26 02:22:07;;;;;;;9.20;2.90;;;3.70;99.90;;;;;;5103112;28;20107;-66
2021/11/26 02:24:33;;;;;;;9.30;2.70;;;3.70;99.90;;;;;;5118544;28;20054;-66
2021/11/26 02:26:59;;;;;;;7.47;2.53;;;3.70;99.90;;;;;;5095080;28;20051;-66
2021/11/26 02:29:25;;;;;;;11.02;3.90;;;3.70;99.90;;;;;;5118073;28;20035;-66
2021/11/26 02:31:51;;;;;;;9.32;2.53;;;3.70;99.90;;;;;;5125362;28;20035;-66
2021/11/26 02:34:17;;;;;;;8.80;2.65;;;3.70;99.90;;;;;;5111298;28;20040;-66
2021/11/26 02:36:43;;;;;;;7.68;2.22;;;3.70;99.90;;;;;;5114146;28;20066;-66
2021/11/26 02:39:10;;;;;;;8.10;2.20;;;3.70;99.90;;;;;;5126605;28;20058;-66
2021/11/26 02:41:37;;;;;;;6.18;2.25;;;3.80;99.90;;;;;;5111596;28;20053;-66
2021/11/26 02:44:03;;;;;;;4.65;2.10;;;3.80;99.90;;;;;;5112592;28;20048;-66
2021/11/26 02:46:29;;;;;;;6.35;1.90;;;3.90;99.90;;;;;;5118232;28;20055;-65
2021/11/26 02:48:55;;;;;;;8.90;2.08;;;3.90;99.90;;;;;;5127349;28;20040;-66
2021/11/26 02:51:21;;;;;;;10.68;2.70;;;3.90;99.90;;;;;;5126988;28;20191;-66
2021/11/26 02:53:46;;;;;;;7.35;2.30;;;3.90;99.90;;;;;;5118684;28;20074;-66
2021/11/26 02:56:12;;;;;;;7.35;2.88;;;4.00;99.90;;;;;;5126220;28;20422;-66
2021/11/26 02:58:38;;;;;;;9.43;2.60;;;4.00;99.90;;;;;;5142621;27;20108;-65
2021/11/26 03:01:04;;;;;;;7.95;2.42;;;4.10;99.90;;;;;;5114090;27;20043;-65
2021/11/26 03:03:29;;;;;;;8.50;2.78;;;4.10;99.90;;;;;;5116141;28;20495;-66
2021/11/26 03:06:01;;;;;;;6.18;2.30;;;4.20;99.90;;;;;;5124970;27;20050;-66
2021/11/26 03:08:28;;;;;;;8.27;2.58;;;4.10;99.90;;;;;;5126327;28;20047;-66
2021/11/26 03:10:55;;;;;;;7.97;2.92;;;4.10;99.90;;;;;;5126583;27;20096;-66
2021/11/26 03:13:21;;;;;;;9.38;3.20;;;4.10;99.90;;;;;;5122344;28;20040;-66
2021/11/26 03:15:47;;;;;;;9.50;3.50;;;4.10;99.90;;;;;;5124733;27;20054;-66
2021/11/26 03:18:17;;;;;;;12.25;3.65;;;4.10;99.90;;;;;;5128722;27;20043;-66
2021/11/26 03:20:43;;;;;;;11.38;3.25;;;4.10;99.90;;;;;;5126870;27;20067;-66
2021/11/26 03:23:09;;;;;;;7.35;3.17;;;4.10;99.90;;;;;;5123985;27;20058;-66
2021/11/26 03:25:35;;;;;;;10.95;3.88;;;4.10;99.90;;;;;;5121483;27;20054;-66
2021/11/26 03:28:02;;;;;;;11.95;3.58;;;4.10;99.90;;;;;;5123433;28;20495;-66
2021/11/26 03:30:28;;;;;;;10.18;4.40;;;4.10;99.90;;;;;;5120343;27;20043;-66
2021/11/26 03:32:56;;;;;;;12.50;5.07;;;4.20;99.90;;;;;;5119359;27;20550;-66
2021/11/26 03:35:24;;;;;;;10.13;3.95;;;4.10;99.90;;;;;;5124610;27;20048;-65
2021/11/26 03:37:50;;;;;;;9.77;3.78;;;4.10;99.90;;;;;;5129676;27;20112;-66
2021/11/26 03:40:18;;;;;;;12.82;4.88;;;4.10;99.90;;;;;;5119824;27;20107;-66
2021/11/26 03:42:45;;;;;;;10.25;3.97;;;4.10;99.90;;;;;;5137510;27;20050;-66
2021/11/26 03:45:12;;;;;;;6.18;3.50;;;4.10;99.90;;;;;;5116541;27;20042;-66
2021/11/26 03:47:38;;;;;;;10.88;4.05;;;4.10;99.90;;;;;;5105601;27;20624;-66
2021/11/26 03:50:05;;;;;;;9.65;3.70;;;4.00;99.90;;;;;;5106405;27;20042;-66
2021/11/26 03:52:31;;;;;;;8.48;3.92;;;4.00;99.90;;;;;;5113630;28;20058;-66
2021/11/26 03:54:57;;;;;;;9.38;4.18;;;4.00;99.90;;;;;;5124376;27;20043;-66
2021/11/26 03:57:23;;;;;;;7.47;3.60;;;4.00;99.90;;;;;;5134500;27;20075;-66
2021/11/26 03:59:49;;;;;;;10.98;3.53;;;4.00;99.90;;;;;;5122397;27;20869;-66
2021/11/26 04:02:15;;;;;;;7.18;3.00;;;4.10;99.90;;;;;;5140855;27;20054;-66
2021/11/26 04:04:40;;;;;;;8.32;3.35;;;4.10;99.90;;;;;;5137749;27;20052;-66
2021/11/26 04:07:06;;;;;;;7.60;2.92;;;4.10;99.90;;;;;;5122278;27;20046;-66
2021/11/26 04:09:32;;;;;;;6.88;1.95;;;4.20;99.90;;;;;;5141116;27;20047;-66
2021/11/26 04:11:58;;;;;;;9.48;2.10;;;4.20;99.90;;;;;;5124619;27;20050;-66
2021/11/26 04:14:25;;;;;;;5.78;2.00;;;4.20;99.90;;;;;;5107684;27;20048;-65
2021/11/26 04:16:51;;;;;;;5.80;1.83;;;4.20;99.90;;;;;;5123507;27;20075;-66
2021/11/26 04:19:17;;;;;;;3.78;1.52;;;4.20;99.90;;;;;;5118779;27;20048;-66
2021/11/26 04:21:42;;;;;;;5.50;1.60;;;4.20;99.90;;;;;;5124694;28;20064;-66
2021/11/26 04:24:08;;;;;;;4.28;1.35;;;4.20;99.90;;;;;;5120931;27;20058;-66
2021/11/26 04:26:34;;;;;;;3.63;1.60;;;4.20;99.90;;;;;;5128685;27;20031;-66
2021/11/26 04:28:59;;;;;;;3.72;1.30;;;4.20;99.90;;;;;;5147343;27;20096;-66
2021/11/26 04:31:27;;;;;;;5.47;2.20;;;4.30;99.90;;;;;;5138064;27;20035;-66
2021/11/26 04:33:54;;;;;;;4.85;1.90;;;4.20;99.90;;;;;;5136563;27;20043;-66
2021/11/26 04:36:21;;;;;;;6.43;1.98;;;4.20;99.90;;;;;;5147136;27;20035;-65
2021/11/26 04:38:47;;;;;;;4.97;1.90;;;4.20;99.90;;;;;;5128787;27;20068;-66
2021/11/26 04:41:12;;;;;;;4.60;2.85;;;4.30;99.90;;;;;;5124642;27;20047;-66
2021/11/26 04:43:38;;;;;;;7.97;2.67;;;4.20;99.90;;;;;;5130480;27;20047;-66
2021/11/26 04:46:04;;;;;;;3.47;2.53;;;4.10;99.90;;;;;;5136242;27;20046;-66
2021/11/26 04:48:30;;;;;;;9.18;2.92;;;4.00;99.90;;;;;;5123951;27;20043;-65
2021/11/26 04:50:55;;;;;;;5.03;2.70;;;3.90;99.90;;;;;;5139753;27;20047;-66
2021/11/26 04:53:21;;;;;;;4.15;2.25;;;4.00;99.90;;;;;;5127998;27;20043;-66
2021/11/26 04:55:48;;;;;;;6.03;2.88;;;4.00;99.90;;;;;;5129101;27;20522;-66
2021/11/26 04:58:13;;;;;;;6.70;2.40;;;3.90;99.90;;;;;;5120692;27;20039;-66
2021/11/26 05:00:40;;;;;;;4.82;2.42;;;3.90;99.90;;;;;;5146750;27;20046;-66
2021/11/26 05:03:06;;;;;;;5.18;2.75;;;4.00;99.90;;;;;;5115826;28;20051;-66
2021/11/26 05:05:32;;;;;;;4.97;2.28;;;4.00;99.90;;;;;;5127318;27;20055;-66
2021/11/26 05:07:58;;;;;;;5.30;2.25;;;4.00;99.90;;;;;;5105256;27;20050;-66
2021/11/26 05:10:26;;;;;;;4.43;3.10;;;3.90;99.90;;;;;;5128846;27;20079;-65
2021/11/26 05:12:56;;;;;;;6.75;2.58;;;3.80;99.90;;;;;;5143827;27;20395;-66
2021/11/26 05:15:27;;;;;;;5.00;2.83;;;3.80;99.90;;;;;;5136215;27;20058;-66
2021/11/26 05:17:54;;;;;;;;;;;3.80;99.90;;;;;;5117960;28;20083;-66
2021/11/26 05:20:21;;;;;;;4.97;3.10;;;3.80;99.90;;;;;;5126671;27;19941;-66
2021/11/26 05:22:47;;;;;;;7.45;4.07;;;3.80;99.90;;;;;;5117680;28;20054;-66
2021/11/26 05:25:13;;;;;;;6.50;4.22;;;3.80;99.90;;;;;;5118204;27;20072;-65
2021/11/26 05:27:39;;;;;;;8.75;4.32;;;3.90;99.90;;;;;;5127624;27;20054;-65
2021/11/26 05:30:07;;;;;;;9.20;4.93;;;4.10;99.90;;;;;;5145779;27;20428;-65
2021/11/26 05:32:32;;;;;;;11.45;5.70;;;4.10;99.90;;;;;;5120728;27;20050;-66
2021/11/26 05:34:58;;;;;;;8.38;5.75;;;4.20;99.90;;;;;;5146826;27;20050;-65
2021/11/26 05:37:24;;;;;;;8.50;5.90;;;4.10;99.90;;;;;;5123574;28;20056;-66
2021/11/26 05:39:50;;;;;;;8.48;5.75;;;4.10;99.90;;;;;;5123158;27;20050;-65
2021/11/26 05:42:15;;;;;;;9.30;6.03;;;4.10;99.90;;;;;;5118542;27;20043;-66
2021/11/26 05:44:41;;;;;;;9.50;5.57;;;4.00;99.90;;;;;;5113258;27;20075;-66
2021/11/26 05:47:07;;;;;;;10.77;5.78;;;4.00;99.90;;;;;;5127919;27;20039;-66
2021/11/26 05:49:32;;;;;;;11.82;5.50;;;4.00;99.90;;;;;;5110297;27;20068;-65
2021/11/26 05:51:58;;;;;;;9.85;5.85;;;4.10;99.90;;;;;;5139293;27;20051;-65
2021/11/26 05:54:24;;;;;;;9.68;5.60;;;4.10;99.90;;;;;;5102119;27;20039;-66
2021/11/26 05:56:50;;;;;;;10.15;6.65;;;4.10;99.90;;;;;;5123005;28;20040;-65
2021/11/26 05:59:16;;;;;;;11.35;6.47;;;4.00;99.90;;;;;;5111528;27;20047;-66
2021/11/26 06:01:41;;;;;;;11.45;6.78;;;4.00;99.90;;;;;;5125462;27;20058;-66
2021/11/26 06:04:07;;;;;;;11.45;6.75;;;3.90;99.90;;;;;;5121612;28;20043;-65
2021/11/26 06:06:33;;;;;;;12.77;6.82;;;3.90;99.90;;;;;;5107703;27;20110;-65
2021/11/26 06:08:58;;;;;;;14.05;6.88;;;3.90;99.90;;;;;;5113640;28;20051;-65
2021/11/26 06:11:24;;;;;;;13.45;7.43;;;3.90;99.90;;;;;;5137216;27;20500;-66
2021/11/26 06:13:50;;;;;;;12.25;7.82;;;4.00;99.90;;;;;;5113287;28;20054;-65
2021/11/26 06:16:16;;;;;;;13.63;7.70;;;3.90;99.90;;;;;;5112405;28;20047;-67
2021/11/26 06:18:42;;;;;;;17.27;8.25;;;3.90;99.90;;;;;;5132775;28;20123;-65
2021/11/26 06:21:08;;;;;;;11.05;7.50;;;4.00;99.90;;;;;;5124769;28;20069;-65
2021/11/26 06:23:33;;;;;;;13.07;7.70;;;4.10;99.90;;;;;;5122614;28;20043;-65
2021/11/26 06:25:59;;;;;;;15.40;8.15;;;4.00;99.90;;;;;;5070708;28;20048;-67
2021/11/26 06:28:25;;;;;;;11.93;7.13;;;4.10;99.90;;;;;;5089054;28;20040;-67
2021/11/26 06:30:50;;;;;;;12.82;6.65;;;4.10;99.90;;;;;;5097992;28;20044;-66
2021/11/26 06:33:16;;;;;;;13.40;7.57;;;4.20;99.90;;;;;;5101668;27;20043;-66
2021/11/26 06:35:42;;;;;;;11.18;7.80;;;4.30;99.90;;;;;;5128107;27;20319;-66
2021/11/26 06:38:07;;;;;;;16.25;9.23;;;4.20;99.90;;;;;;5105199;27;20059;-66
2021/11/26 06:40:34;;;;;;;11.88;8.40;;;4.10;99.90;;;;;;5108968;27;20043;-66
2021/11/26 06:43:00;;;;;;;12.85;9.18;;;4.10;99.90;;;;;;5108461;27;20050;-65
2021/11/26 06:45:26;;;;;;;13.27;8.18;;;4.10;99.90;;;;;;5094729;27;20048;-66
2021/11/26 06:47:52;;;;;;;14.88;8.63;;;4.10;99.90;;;;;;5138331;27;20441;-66
2021/11/26 06:50:19;;;;;;;12.50;7.35;;;4.10;99.90;;;;;;5136196;27;20046;-65
2021/11/26 06:52:45;;;;;;;12.27;7.70;;;4.00;99.90;;;;;;5093043;27;20077;-64
2021/11/26 06:55:12;;;;;;;12.73;7.82;;;4.20;99.90;;;;;;5105090;27;20032;-65
2021/11/26 06:57:38;;;;;;;12.73;7.20;;;4.20;99.90;;;;;;5112561;27;20581;-66
2021/11/26 07:00:07;;;;;;;12.45;6.80;;;4.10;99.90;;;;;;5120240;27;20062;-66
2021/11/26 07:02:33;;;;;;;9.07;5.78;;;4.10;99.90;;;;;;5111161;27;20051;-65
2021/11/26 07:04:59;;;;;;;9.43;5.90;;;4.10;99.90;;;;;;5118401;27;20072;-65
2021/11/26 07:07:25;;;;;;;12.35;6.28;;;4.00;99.90;;;;;;5124908;27;20158;-65
2021/11/26 07:09:51;;;;;;;9.98;6.15;;;4.00;99.90;;;;;;5120043;27;20083;-64
2021/11/26 07:12:16;;;;;;;11.50;6.15;;;4.00;99.90;;;;;;5091003;28;20653;-65
2021/11/26 07:14:44;;;;;;;8.77;5.32;;;4.00;99.90;;;;;;5119136;27;20066;-66
2021/11/26 07:17:12;;;;;;;15.85;6.13;;;4.00;99.90;;;;;;5108625;27;20148;-65
2021/11/26 07:19:38;;;;;;;9.60;5.70;;;4.00;99.90;;;;;;5132105;27;20043;-65
2021/11/26 07:22:05;;;;;;;9.95;6.32;;;4.00;99.90;;;;;;5108211;27;20047;-65
2021/11/26 07:24:31;;;;;;;9.48;4.50;;;4.00;99.90;;;;;;5135604;27;20040;-65
2021/11/26 07:26:57;;;;;;;11.27;5.13;;;4.30;99.90;;;;;;5109547;27;20051;-65
2021/11/26 07:29:23;;;;;;;7.60;5.05;;;4.20;99.90;;;;;;5103708;27;20081;-66
2021/11/26 07:31:49;;;;;;;8.88;5.03;;;4.10;99.90;;;;;;5100093;28;20059;-65
2021/11/26 07:34:14;;;;;;;17.20;5.78;;;4.20;99.90;;;;;;5117641;27;20284;-67
2021/11/26 07:36:40;;;;;;;6.68;4.63;;;4.20;99.90;;;;;;5102674;28;20050;-66
2021/11/26 07:39:08;;;;;;;7.60;4.63;;;4.20;99.90;;;;;;5086215;27;20086;-65
2021/11/26 07:41:34;;;;;;;5.72;4.40;;;4.20;99.90;;;;;;5121114;27;20137;-65
2021/11/26 07:44:00;;;;;;;7.30;3.97;;;4.30;99.90;;;;;;5127709;27;20449;-65
2021/11/26 07:46:26;;;;;;;5.53;4.15;;;4.40;99.90;;;;;;5102345;28;20140;-64
2021/11/26 07:48:51;;;;;;;8.40;4.22;;;4.50;99.90;;;;;;5125627;27;20078;-65
2021/11/26 07:51:17;;;;;;;10.23;5.68;;;4.40;99.90;;;;;;5101247;28;20075;-64
2021/11/26 07:53:43;;;;;;;10.35;5.07;;;4.30;99.90;;;;;;5103716;27;20039;-61
2021/11/26 07:56:09;;;;;;;10.98;4.60;;;4.30;99.90;;;;;;5121625;27;20054;-61
2021/11/26 07:58:34;;;;;;;8.07;4.30;;;4.40;99.90;;;;;;5136545;27;20051;-61
2021/11/26 08:01:00;;;;;;;7.88;4.68;;;4.40;99.90;;;;;;5128475;27;20612;-62
2021/11/26 08:03:26;;;;;;;10.70;4.93;;;4.60;99.90;;;;;;5118144;27;20039;-61
2021/11/26 08:05:52;;;;;;;6.78;4.75;;;4.40;99.90;;;;;;5106300;27;20031;-61
2021/11/26 08:08:18;;;;;;;9.48;4.93;;;4.40;99.90;;;;;;5118021;28;20063;-61
2021/11/26 08:10:43;;;;;;;7.88;4.88;;;4.20;99.90;;;;;;5121462;27;20074;-60
2021/11/26 08:13:10;;;;;;;10.05;4.60;;;4.20;99.90;;;;;;5115806;27;20050;-61
2021/11/26 08:15:36;;;;;;;10.88;5.57;;;4.20;99.90;;;;;;5138078;27;20053;-60
2021/11/26 08:18:04;;;;;;;6.15;4.70;;;4.10;99.90;;;;;;5103185;27;20094;-60
2021/11/26 08:20:31;;;;;;;8.30;4.65;;;4.10;99.90;;;;;;5113839;27;20530;-60
2021/11/26 08:22:57;;;;;;;11.70;5.97;;;4.10;99.90;;;;;;5109268;27;20043;-60
2021/11/26 08:25:25;;;;;;;7.80;4.60;;;4.20;99.90;;;;;;5136438;27;20087;-61
2021/11/26 08:27:53;;;;;;;10.38;5.00;;;4.30;99.90;;;;;;5096734;27;20067;-61
2021/11/26 08:30:20;;;;;;;10.57;4.80;;;4.30;99.90;;;;;;5118877;27;20530;-61
2021/11/26 08:32:46;;;;;;;13.52;5.38;;;4.20;99.90;;;;;;5102944;27;20061;-61
2021/11/26 08:35:12;;;;;;;7.68;4.63;;;4.30;99.90;;;;;;5114182;27;20060;-61
2021/11/26 08:37:38;;;;;;;8.52;4.85;;;4.30;99.90;;;;;;5116435;27;20063;-60
2021/11/26 08:40:05;;;;;;;7.78;4.05;;;4.40;99.90;;;;;;5130945;27;20092;-61
2021/11/26 08:42:31;;;;;;;11.13;4.85;;;4.50;99.90;;;;;;5100335;28;20056;-61
2021/11/26 08:44:57;;;;;;;9.60;4.47;;;4.50;99.90;;;;;;5116635;28;20052;-61
2021/11/26 08:47:22;;;;;;;11.52;4.63;;;4.50;99.90;;;;;;5109074;27;20092;-60
2021/11/26 08:49:48;;;;;;;9.57;4.22;;;4.40;99.90;;;;;;5136733;27;20067;-61
2021/11/26 08:52:15;;;;;;;8.13;3.85;;;4.50;99.90;;;;;;5113968;27;20077;-61
2021/11/26 08:54:41;;;;;;;8.75;4.90;;;4.50;99.90;;;;;;5121170;27;20202;-61
2021/11/26 08:57:07;;;;;;;9.07;4.18;;;4.40;99.90;;;;;;5110520;27;20131;-61
2021/11/26 08:59:33;;;;;;;9.30;4.13;;;4.50;99.90;;;;;;5120336;27;20116;-61
2021/11/26 09:01:58;;;;;;;9.75;4.50;;;4.70;99.90;;;;;;5090651;27;20570;-61
2021/11/26 09:04:25;;;;;;;9.57;4.13;;;4.80;99.90;;;;;;5119203;27;20050;-61
2021/11/26 09:06:51;;;;;;;9.05;4.10;;;4.70;99.90;;;;;;5109388;27;20086;-61
2021/11/26 09:09:18;;;;;;;7.88;3.83;;;4.80;99.90;;;;;;5137286;27;20055;-62
2021/11/26 09:11:44;;;;;;;6.78;3.67;;;4.80;99.90;;;;;;5111889;27;20605;-61
2021/11/26 09:14:10;;;;;;;7.35;3.53;;;5.00;99.90;;;;;;5124207;27;20046;-61
2021/11/26 09:16:36;;;;;;;6.97;3.72;;;5.10;99.90;;;;;;5099965;27;20047;-61
2021/11/26 09:19:03;;;;;;;8.18;3.50;;;5.10;99.90;;;;;;5118450;27;20039;-61
2021/11/26 09:21:29;;;;;;;7.85;3.80;;;5.00;99.90;;;;;;5132204;27;20087;-61
2021/11/26 09:23:55;;;;;;;8.13;2.85;;;5.00;99.90;;;;;;5125904;27;20039;-61
2021/11/26 09:26:22;;;;;;;9.05;3.83;;;5.20;99.90;;;;;;5126464;27;20083;-61
2021/11/26 09:28:47;;;;;;;11.77;3.03;;;5.00;99.90;;;;;;5137794;27;20640;-60
2021/11/26 09:31:13;;;;;;;9.95;3.50;;;5.20;99.90;;;;;;5131041;27;20060;-61
2021/11/26 09:33:39;;;;;;;7.25;3.15;;;5.20;99.90;;;;;;5129360;27;20134;-61
2021/11/26 09:36:07;;;;;;;8.55;3.28;;;5.30;99.90;;;;;;5109160;27;20607;-61
2021/11/26 09:38:34;;;;;;;7.78;2.92;;;5.30;99.90;;;;;;5118535;27;20071;-61
2021/11/26 09:41:01;;;;;;;11.98;3.05;;;5.20;99.90;;;;;;5108948;27;20039;-61
2021/11/26 09:43:27;;;;;;;10.40;3.47;;;5.10;99.90;;;;;;5116055;27;20061;-61
2021/11/26 09:45:53;;;;;;;7.38;3.20;;;5.10;99.90;;;;;;5127672;27;20126;-63
2021/11/26 09:48:19;;;;;;;6.30;2.88;;;5.10;99.90;;;;;;5097538;27;20332;-61
2021/11/26 09:50:45;;;;;;;6.60;3.47;;;5.10;99.90;;;;;;5119630;27;20042;-61
2021/11/26 09:53:16;;;;;;;9.95;3.08;;;5.20;99.90;;;;;;5106360;27;20055;-61
2021/11/26 09:56:03;;;;;;;7.35;3.22;;;5.20;99.90;;;;;;5101356;28;20045;-61
2021/11/26 09:58:30;;;;;;;7.93;3.20;;;5.30;99.90;;;;;;5089578;27;20085;-61
2021/11/26 10:00:57;;;;;;;8.85;3.20;;;5.40;99.90;;;;;;5128838;27;20086;-61
2021/11/26 10:03:40;;;;;;;8.90;3.22;;;5.20;99.90;;;;;;5108147;27;20047;-62
2021/11/26 10:06:23;;;;;;;9.27;4.40;;;5.50;99.90;;;;;;5075776;27;20052;-62
2021/11/26 10:09:18;;;;;;;8.55;3.67;;;5.40;99.90;;;;;;5115004;27;20082;-64
2021/11/26 10:11:50;;;;;;;12.25;4.10;;;5.30;99.90;;;;;;5089281;28;20059;-62
2021/11/26 10:14:24;;;;;;;10.98;3.60;;;5.30;99.90;;;;;;5114597;28;20516;-62
2021/11/26 10:16:55;;;;;;;9.82;3.47;;;5.30;99.90;;;;;;5107895;28;20047;-61
2021/11/26 10:19:32;;;;;;;8.77;4.15;;;5.50;99.90;;;;;;5128393;27;20048;-62
2021/11/26 10:21:58;;;;;;;8.50;3.40;;;5.50;99.90;;;;;;5122484;28;20063;-61
2021/11/26 10:24:25;;;;;;;8.40;3.30;;;5.70;99.90;;;;;;5133858;28;20077;-62
2021/11/26 10:26:55;;;;;;;7.32;3.65;;;5.90;99.90;;;;;;5110355;28;20557;-61
2021/11/26 10:29:30;;;;;;;10.55;3.83;;;5.80;99.90;;;;;;5128102;28;20062;-62
2021/11/26 10:32:11;;;;;;;11.15;3.75;;;5.80;99.90;;;;;;5104317;28;20068;-62
2021/11/26 10:34:39;;;;;;;9.43;3.92;;;5.60;99.90;;;;;;5118921;28;20077;-62
2021/11/26 10:37:16;;;;;;;13.90;4.35;;;5.70;99.90;;;;;;5085898;28;20043;-62
2021/11/26 10:39:42;;;;;;;11.48;3.92;;;5.60;99.90;;;;;;5124519;28;20043;-63
2021/11/26 10:42:07;;;;;;;10.07;3.55;;;5.50;99.90;;;;;;5105508;28;20043;-62
2021/11/26 10:44:42;;;;;;;9.60;3.72;;;5.60;99.90;;;;;;5133489;27;20081;-62
2021/11/26 10:47:23;;;;;;;8.48;3.80;;;5.50;99.90;;;;;;5101361;28;20047;-62
2021/11/26 10:50:01;;;;;;;12.73;3.75;;;5.70;99.90;;;;;;5096306;28;20067;-62
2021/11/26 10:57:59;;;;;;;9.20;3.72;;;5.90;99.90;;;;;;5117544;28;20054;-62
2021/11/26 11:00:25;;;;;;;8.50;3.53;;;6.10;99.90;;;;;;5103312;28;20050;-61
2021/11/26 11:02:56;;;;;;;11.10;3.97;;;5.90;99.90;;;;;;5113530;28;20039;-61
2021/11/26 11:05:40;;;;;;;7.18;3.28;;;5.90;99.90;;;;;;5111836;28;20086;-62
2021/11/26 11:08:19;;;;;;;11.57;3.55;;;6.40;99.90;;;;;;5126918;28;20047;-62
2021/11/26 11:10:46;;;;;;;8.47;2.80;;;6.40;99.90;;;;;;5114744;27;20295;-63
2021/11/26 11:13:13;;;;;;;13.93;3.78;;;6.50;99.90;;;;;;5105244;28;20036;-62
2021/11/26 11:15:40;;;;;;;9.30;3.95;;;6.50;99.90;;;;;;5102566;28;20047;-61
2021/11/26 11:18:07;;;;;;;11.27;3.97;;;6.50;99.90;;;;;;5114589;28;20058;-61
2021/11/26 11:20:34;;;;;;;10.10;3.58;;;6.30;99.90;;;;;;5110363;27;20047;-61
2021/11/26 11:23:00;;;;;;;9.27;3.63;;;6.40;99.90;;;;;;5123995;27;20059;-61
2021/11/26 11:25:29;;;;;;;10.75;4.28;;;6.20;99.90;;;;;;5110216;27;20047;-61
2021/11/26 11:28:08;;;;;;;12.75;4.35;;;6.00;99.90;;;;;;5111164;27;20051;-61
2021/11/26 11:30:35;;;;;;;12.07;4.70;;;6.20;99.90;;;;;;5122119;27;20052;-61
2021/11/26 11:33:02;;;;;;;11.68;4.40;;;5.90;99.90;;;;;;5109249;27;20055;-62
2021/11/26 11:35:30;;;;;;;9.10;5.15;;;5.70;99.90;;;;;;5111539;27;20109;-62
2021/11/26 11:37:57;;;;;;;7.63;3.63;;;6.00;99.90;;;;;;5118227;27;20035;-61
2021/11/26 11:40:35;;;;;;;10.85;4.32;;;6.30;99.90;;;;;;5100809;28;20324;-62
2021/11/26 11:43:11;;;;;;;12.35;5.20;;;6.20;99.90;;;;;;5087666;28;20127;-62
2021/11/26 11:45:39;;;;;;;14.18;5.13;;;6.10;99.90;;;;;;5093614;27;20058;-62
2021/11/26 11:48:05;;;;;;;11.50;4.82;;;6.40;99.90;;;;;;5123559;27;20071;-62
2021/11/26 11:50:42;;;;;;;10.55;4.15;;;6.50;99.90;;;;;;5111211;27;20118;-64
2021/11/26 11:53:19;;;;;;;11.02;5.65;;;6.50;99.90;;;;;;5120759;27;20034;-62
2021/11/26 11:55:45;;;;;;;11.48;4.72;;;6.50;99.90;;;;;;5108504;28;20047;-62
2021/11/26 11:58:21;;;;;;;13.27;5.10;;;6.70;99.90;;;;;;5113490;27;20479;-63
2021/11/26 12:00:51;;;;;;;16.80;6.57;;;6.40;99.90;;;;;;5107070;28;20253;-62
2021/11/26 12:03:23;;;;;;;12.30;6.22;;;6.30;99.90;;;;;;5115268;27;20047;-61
2021/11/26 12:06:00;;;;;;;14.95;5.57;;;6.50;99.90;;;;;;5119074;27;20039;-61
2021/11/26 12:08:26;;;;;;;11.70;5.22;;;6.30;99.90;;;;;;5117917;27;20050;-63
2021/11/26 12:10:58;;;;;;;13.75;6.13;;;6.60;99.90;;;;;;5095146;28;20072;-63
2021/11/26 12:13:34;;;;;;;16.58;6.18;;;6.40;99.90;;;;;;5129070;27;20068;-62
2021/11/26 12:16:14;;;;;;;13.38;5.20;;;6.60;99.90;;;;;;5108534;27;20058;-62
2021/11/26 12:18:45;;;;;;;12.10;5.75;;;6.80;99.90;;;;;;5133362;27;20035;-62
2021/11/26 12:21:18;;;;;;;12.00;4.90;;;6.70;99.90;;;;;;5130053;27;20138;-62
2021/11/26 12:23:52;;;;;;;11.57;4.72;;;6.80;99.90;;;;;;5123514;27;20046;-62
2021/11/26 12:28:56;;;;;;;13.57;4.82;;;6.90;99.90;;;;;;5132822;27;20078;-62
2021/11/26 12:31:32;;;;;;;12.13;5.10;;;6.90;99.90;;;;;;5124931;27;20044;-62
2021/11/26 12:34:06;;;;;;;18.27;5.28;;;6.80;99.90;;;;;;5121044;27;20107;-62
2021/11/26 12:36:41;;;;;;;11.75;5.28;;;6.90;99.90;;;;;;5126550;27;20066;-62
2021/11/26 12:39:24;;;;;;;10.75;4.97;;;6.90;99.90;;;;;;5122780;27;20042;-62
2021/11/26 12:41:59;;;;;;;14.25;5.40;;;7.00;99.90;;;;;;5114821;27;20115;-62
2021/11/26 12:44:33;;;;;;;14.60;5.10;;;6.90;99.90;;;;;;5140661;27;20100;-62
2021/11/26 12:47:11;;;;;;;10.60;4.80;;;6.90;99.90;;;;;;5115746;27;20166;-62
2021/11/26 12:52:09;;;;;;;11.75;4.70;;;6.70;99.90;;;;;;5096242;28;20051;-61
2021/11/26 12:54:41;;;;;;;11.88;4.75;;;6.60;99.90;;;;;;5115767;28;20044;-62
2021/11/26 12:57:09;;;;;;;8.43;4.30;;;6.50;99.90;;;;;;5075899;28;20048;-62
2021/11/26 12:59:43;;;;;;;10.05;4.50;;;6.70;99.90;;;;;;5095313;28;20069;-62
2021/11/26 13:02:10;;;;;;;11.55;4.10;;;6.80;99.90;;;;;;5076461;28;20352;-62
2021/11/26 13:04:47;;;;;;;9.52;4.22;;;6.70;99.90;;;;;;5100750;28;20115;-62
2021/11/26 13:07:13;;;;;;;6.72;4.18;;;6.60;99.90;;;;;;5105505;28;20048;-62